< Typhoon 198014 1980 Season Typhoon 198016 >
Typhoon 198015 (RUTH)
General InformationTrack Information on Google MapsDetailed Wind Information || Disaster Info.ResourceGoogle EarthGE AnimationAtom FeedGeoJSON
Detalied Best Track (Time Zone = UTC)
Year Month Day Hour Lat. Long. Pressure (hPa) Wind (kt) Class Image Chart
1980 9 12 06 19.0 115.3 1002 0 2 -- Chart
1980 9 12 12 19.0 115.0 998 0 2 -- Chart
1980 9 12 18 19.0 114.8 998 0 2 -- Chart
1980 9 13 00 19.0 114.5 998 0 2 -- Chart
1980 9 13 06 19.0 114.3 998 0 2 -- Chart
1980 9 13 12 19.0 114.0 998 0 2 -- Chart
1980 9 13 18 19.0 113.5 994 0 2 -- Chart
1980 9 14 00 19.0 113.0 990 40 3 -- Chart
1980 9 14 06 19.1 112.5 990 40 3 -- Chart
1980 9 14 12 19.2 112.0 990 40 3 -- Chart
1980 9 14 18 19.5 111.0 990 40 3 -- Chart
1980 9 15 00 19.7 110.0 992 35 3 -- Chart
1980 9 15 06 19.8 108.8 990 45 3 -- Chart
1980 9 15 12 20.0 107.8 985 50 4 -- Chart
1980 9 15 18 20.2 106.7 980 55 4 -- Chart
1980 9 16 00 19.6 105.5 985 55 4 -- Chart
1980 9 16 06 19.0 104.0 996 0 2 -- Chart
1980 9 16 12 19.0 103.0 1004 0 2 -- Chart
1980 9 16 18 18.0 101.0 1006 0 6 -- Chart
1980 9 17 00 18.0 100.5 1006 0 6 -- Chart
Japan Meteorological Agency Best Track Data | Correction Date : 1992-10-21
< Typhoon 198014 1980 Season Typhoon 198016 >

Help